Aviation Digital Data Service (ADDS)

Output produced by METARs form (2327 UTC 25 May 2015)
found at http://aviationweather.gov/adds/metars/
 
KCKB 251732Z 2518/2618 23007KT P6SM SKC 
     FM260000 00000KT P6SM SCT060 BKN090 
     FM260500 18004KT P6SM BKN050 
     FM260600 18004KT 6SM BR BKN045 
     FM261300 19004KT P6SM BKN040